Time;durP1;ratioP1;P1;durP2;ratioP2;P2;SDS_P1;SDS_P2;PMS_P1;PMS_P2;Temp;Humidity;BMP_temperature;BMP_pressure;BME280_temperature;BME280_humidity;BME280_pressure;Samples;Min_cycle;Max_cycle;Signal;HPM_P1;HPM_P2
2021/12/03 09:03:52;;;;;;;11.00;2.07;;;4.10;99.90;;;;;;2827567;23;20234;31
2021/12/03 09:06:20;;;;;;;10.07;2.27;;;4.10;99.90;;;;;;4955343;28;20263;-75
2021/12/03 09:08:47;;;;;;;7.67;1.83;;;4.00;99.90;;;;;;4957502;28;20231;-73
2021/12/03 09:11:14;;;;;;;7.67;2.00;;;4.00;99.90;;;;;;4957871;28;20230;-73
2021/12/03 09:13:41;;;;;;;8.73;2.50;;;4.10;99.90;;;;;;4957329;28;20204;-72
2021/12/03 09:16:10;;;;;;;7.43;2.20;;;4.30;99.90;;;;;;4957781;28;20208;-72
2021/12/03 09:18:39;;;;;;;4.10;2.23;;;4.50;99.90;;;;;;4957498;28;20268;-75
2021/12/03 09:21:08;;;;;;;3.10;1.37;;;4.60;99.90;;;;;;4957430;28;20228;-73
2021/12/03 09:23:44;;;;;;;6.03;1.53;;;4.70;99.90;;;;;;4957592;28;20212;-73
2021/12/03 09:26:13;;;;;;;3.23;1.60;;;4.60;99.90;;;;;;4957149;28;20235;-72
2021/12/03 09:28:43;;;;;;;9.30;1.93;;;4.60;99.90;;;;;;4957407;28;20212;-73
2021/12/03 09:31:11;;;;;;;4.67;2.23;;;4.70;99.90;;;;;;4957316;28;20266;-72
2021/12/03 09:33:40;;;;;;;4.37;1.83;;;4.70;99.90;;;;;;4957650;28;20240;-73
2021/12/03 09:36:09;;;;;;;6.23;2.00;;;4.70;99.90;;;;;;4956955;28;20216;-72
2021/12/03 09:38:38;;;;;;;6.83;1.80;;;4.80;99.90;;;;;;4956925;28;20208;-73
2021/12/03 09:41:08;;;;;;;5.27;1.77;;;4.70;99.90;;;;;;4957224;28;20234;-72
2021/12/03 09:43:36;;;;;;;2.47;1.27;;;4.70;99.90;;;;;;4957199;28;20212;-74
2021/12/03 09:46:11;;;;;;;2.73;1.70;;;4.70;99.90;;;;;;4956862;28;20238;-73
2021/12/03 09:48:52;;;;;;;3.23;1.30;;;4.80;99.90;;;;;;4956841;28;20214;-73
2021/12/03 09:51:19;;;;;;;7.47;1.67;;;4.80;99.90;;;;;;4956506;28;20268;-73
2021/12/03 09:56:30;;;;;;;3.57;1.77;;;4.80;99.90;;;;;;4956451;28;20204;-73
2021/12/03 10:01:46;;;;;;;9.60;1.70;;;4.80;99.90;;;;;;4931926;28;20251;-73
2021/12/03 10:04:38;;;;;;;6.30;1.80;;;4.80;99.90;;;;;;4956658;28;20632;-72
2021/12/03 10:13:10;;;;;;;3.93;1.40;;;4.70;99.90;;;;;;4921826;28;20237;-73
2021/12/03 10:15:51;;;;;;;2.53;1.43;;;4.80;99.90;;;;;;4956494;28;20256;-73
2021/12/03 10:18:32;;;;;;;4.87;1.67;;;4.90;99.90;;;;;;4956294;28;20212;-73
2021/12/03 10:21:05;;;;;;;3.90;1.60;;;4.90;99.90;;;;;;4956398;28;20238;-74
2021/12/03 10:35:04;;;;;;;8.50;1.90;;;4.90;99.90;;;;;;4955726;29;20618;-75
2021/12/03 10:40:32;;;;;;;3.57;1.43;;;5.00;99.90;;;;;;4952661;29;20227;-74
2021/12/03 10:43:19;;;;;;;4.50;1.53;;;5.10;99.90;;;;;;4955922;28;20285;-74
2021/12/03 10:46:05;;;;;;;2.77;1.23;;;5.20;99.90;;;;;;4955052;28;20694;-74
2021/12/03 10:48:40;;;;;;;2.23;1.40;;;5.20;99.90;;;;;;4954902;29;20623;-73
2021/12/03 10:51:27;;;;;;;2.70;1.43;;;5.20;99.90;;;;;;4954777;28;20232;-74
2021/12/03 10:53:59;;;;;;;3.80;1.17;;;5.10;99.90;;;;;;4955118;28;20210;-74
2021/12/03 10:56:41;;;;;;;2.77;1.30;;;5.00;99.90;;;;;;4955427;28;20212;-75
2021/12/03 10:59:29;;;;;;;5.97;1.33;;;5.10;99.90;;;;;;4955541;28;20270;-76
2021/12/03 11:02:33;;;;;;;3.90;1.43;;;5.10;99.90;;;;;;4954756;28;20228;-74
2021/12/03 11:13:57;;;;;;;2.10;1.17;;;5.20;99.90;;;;;;4895010;29;20210;-74
2021/12/03 11:36:35;;;;;;;3.60;1.03;;;5.30;99.90;;;;;;4954820;29;20734;-74
2021/12/03 11:51:35;;;;;;;1.20;0.80;;;5.10;99.90;;;;;;4945371;29;20284;-73
2021/12/03 12:01:04;;;;;;;1.13;0.70;;;5.30;99.90;;;;;;4908567;29;20300;-75
2021/12/03 14:00:44;;;;;;;0.90;0.60;;;5.00;99.90;;;;;;4956180;29;20238;-76
2021/12/03 14:36:53;;;;;;;0.40;0.37;;;4.80;99.90;;;;;;4955192;29;20202;-76
2021/12/03 14:39:45;;;;;;;0.97;0.60;;;4.70;99.90;;;;;;4955481;28;20652;-76
2021/12/03 14:42:45;;;;;;;1.27;0.50;;;4.70;99.90;;;;;;4954473;28;20256;-74
2021/12/03 14:45:28;;;;;;;0.90;0.60;;;4.70;99.90;;;;;;4936462;29;20288;-77
2021/12/03 14:57:16;;;;;;;0.67;0.40;;;4.60;99.90;;;;;;4935700;29;20208;-78
2021/12/03 15:00:06;;;;;;;0.93;0.50;;;4.60;99.90;;;;;;4935681;29;20217;-76
2021/12/03 15:02:45;;;;;;;0.73;0.53;;;4.60;99.90;;;;;;4948017;29;20738;-76
2021/12/03 15:08:01;;;;;;;0.73;0.53;;;4.60;99.90;;;;;;4952655;28;20987;-76
2021/12/03 15:10:37;;;;;;;0.90;0.53;;;4.60;99.90;;;;;;4955244;28;20236;-73
2021/12/03 15:13:29;;;;;;;0.83;0.60;;;4.70;99.90;;;;;;4955190;28;20212;-77
2021/12/03 15:21:47;;;;;;;1.27;0.60;;;4.60;99.90;;;;;;4955029;28;20315;-76
2021/12/03 15:24:37;;;;;;;0.97;0.50;;;4.70;99.90;;;;;;4954934;28;20204;-75
2021/12/03 15:30:20;;;;;;;0.43;0.20;;;4.60;99.90;;;;;;4952689;28;20251;-75
2021/12/03 15:32:49;;;;;;;0.83;0.53;;;4.60;99.90;;;;;;4954697;28;20208;-78
2021/12/03 15:35:19;;;;;;;1.23;0.70;;;4.50;99.90;;;;;;4948890;28;20568;-79
2021/12/03 15:41:02;;;;;;;0.67;0.50;;;4.50;99.90;;;;;;4895047;29;20222;-77
2021/12/03 15:52:14;;;;;;;1.90;0.50;;;4.40;99.90;;;;;;4953507;28;20239;-76
2021/12/03 15:57:44;;;;;;;0.70;0.57;;;4.40;99.90;;;;;;4954518;28;20211;-75
2021/12/03 16:03:38;;;;;;;0.87;0.60;;;4.40;99.90;;;;;;4902806;29;20211;-74
2021/12/03 16:08:58;;;;;;;1.17;0.73;;;4.50;99.90;;;;;;4925600;29;20201;-75
2021/12/03 16:11:35;;;;;;;2.50;0.70;;;4.50;99.90;;;;;;4938296;29;20703;-75
2021/12/03 16:14:18;;;;;;;0.83;0.67;;;4.50;99.90;;;;;;4938700;29;20307;-74
2021/12/03 16:17:16;;;;;;;1.10;0.60;;;4.60;99.90;;;;;;4939254;29;20223;-76
2021/12/03 16:25:21;;;;;;;1.67;0.60;;;4.50;99.90;;;;;;4938592;29;20212;-77
2021/12/03 16:44:34;;;;;;;0.60;0.50;;;4.40;99.90;;;;;;4957572;29;20254;-75
2021/12/03 16:47:08;;;;;;;0.93;0.53;;;4.40;99.90;;;;;;4956666;28;20724;-78
2021/12/03 16:50:02;;;;;;;0.50;0.33;;;4.40;99.90;;;;;;4957153;28;20240;-79
2021/12/03 16:52:31;;;;;;;1.10;0.70;;;4.30;99.90;;;;;;4958015;28;20208;-77
2021/12/03 16:55:00;;;;;;;0.90;0.70;;;4.30;99.90;;;;;;4957876;28;20243;-77
2021/12/03 16:57:31;;;;;;;1.27;0.90;;;4.40;99.90;;;;;;4956868;28;20204;-76
2021/12/03 17:00:01;;;;;;;1.37;0.60;;;4.30;99.90;;;;;;4957274;28;20303;-78
2021/12/03 17:02:35;;;;;;;0.60;0.60;;;4.30;99.90;;;;;;4957093;28;20200;-78
2021/12/03 17:05:19;;;;;;;1.10;0.67;;;4.30;99.90;;;;;;4957132;28;20222;-78
2021/12/03 17:08:22;;;;;;;0.90;0.80;;;4.30;99.90;;;;;;4957234;28;20235;-77
2021/12/03 17:13:48;;;;;;;1.50;0.90;;;4.40;99.90;;;;;;4955674;28;20231;-79
2021/12/03 17:16:31;;;;;;;1.27;1.00;;;4.50;99.90;;;;;;4954131;28;20544;-77
2021/12/03 17:49:30;;;;;;;3.73;1.00;;;4.50;99.90;;;;;;4947626;29;20219;-78
2021/12/03 17:52:10;;;;;;;1.10;0.97;;;4.50;99.90;;;;;;4950032;29;20224;-79
2021/12/03 17:57:31;;;;;;;0.63;0.57;;;4.60;99.90;;;;;;4954841;28;20208;-79
2021/12/03 17:59:59;;;;;;;1.47;0.70;;;4.60;99.90;;;;;;4936852;29;20208;-79
2021/12/03 18:02:34;;;;;;;1.27;0.60;;;4.60;99.90;;;;;;4955679;29;20682;-75
2021/12/03 18:05:18;;;;;;;1.37;0.87;;;4.70;99.90;;;;;;4955697;28;20222;-78
2021/12/03 18:07:53;;;;;;;1.10;0.97;;;4.60;99.90;;;;;;4955645;28;20239;-72
2021/12/03 18:10:38;;;;;;;2.33;1.27;;;4.70;99.90;;;;;;4955523;28;20711;-75
2021/12/03 18:43:47;;;;;;;1.17;0.70;;;4.50;99.90;;;;;;4952724;28;20734;-76
2021/12/03 18:49:25;;;;;;;1.00;0.60;;;4.60;99.90;;;;;;4955340;28;20200;-77
2021/12/03 18:52:04;;;;;;;0.90;0.40;;;4.70;99.90;;;;;;4955301;28;20701;-77
2021/12/03 18:54:42;;;;;;;1.10;1.00;;;4.70;99.90;;;;;;4955310;28;20314;-77
2021/12/03 18:57:10;;;;;;;0.53;0.50;;;4.70;99.90;;;;;;4954615;28;20216;-76
2021/12/03 18:59:40;;;;;;;1.77;0.70;;;4.70;99.90;;;;;;4954547;28;20204;-76
2021/12/03 19:02:09;;;;;;;1.20;0.50;;;4.70;99.90;;;;;;4954530;28;20223;-76
2021/12/03 19:04:46;;;;;;;1.23;0.90;;;4.70;99.90;;;;;;4954867;28;20640;-78
2021/12/03 19:07:17;;;;;;;0.90;0.60;;;4.70;99.90;;;;;;4954635;29;20315;-74
2021/12/03 19:09:46;;;;;;;0.80;0.70;;;4.80;99.90;;;;;;4955044;28;20211;-76
2021/12/03 19:12:16;;;;;;;0.60;0.60;;;4.80;99.90;;;;;;4955066;28;20724;-77
2021/12/03 19:14:49;;;;;;;1.00;0.70;;;4.80;99.90;;;;;;4955198;28;20216;-77
2021/12/03 19:17:18;;;;;;;1.10;0.60;;;4.80;99.90;;;;;;4954992;28;20303;-75
2021/12/03 19:19:46;;;;;;;0.83;0.60;;;4.80;99.90;;;;;;4954225;28;20208;-76
2021/12/03 19:22:14;;;;;;;0.90;0.50;;;4.70;99.90;;;;;;4955256;28;20614;-77
2021/12/03 19:24:41;;;;;;;1.37;0.47;;;4.70;99.90;;;;;;4958072;28;20674;-78
2021/12/03 19:27:10;;;;;;;0.60;0.50;;;4.70;99.90;;;;;;4957856;28;20269;-78
2021/12/03 19:29:37;;;;;;;0.40;0.30;;;4.70;99.90;;;;;;4954960;28;20204;-79
2021/12/03 19:32:05;;;;;;;0.70;0.60;;;4.80;99.90;;;;;;4956761;28;20315;-74
2021/12/03 19:34:34;;;;;;;1.00;0.70;;;4.80;99.90;;;;;;4959503;28;20224;-77
2021/12/03 19:37:01;;;;;;;2.03;0.90;;;4.80;99.90;;;;;;4960100;28;20726;-77
2021/12/03 19:39:29;;;;;;;0.80;0.70;;;4.90;99.90;;;;;;4955277;28;20308;-77
2021/12/03 19:42:02;;;;;;;1.20;0.90;;;4.90;99.90;;;;;;4954078;28;20262;-76
2021/12/03 19:47:14;;;;;;;1.90;0.90;;;4.90;99.90;;;;;;4954087;28;20231;-76
2021/12/03 19:49:49;;;;;;;3.00;1.20;;;4.90;99.90;;;;;;4935660;29;20868;-77
2021/12/03 19:52:24;;;;;;;1.03;0.83;;;4.90;99.90;;;;;;4935746;29;20232;-75
2021/12/03 19:54:51;;;;;;;1.13;0.80;;;4.90;99.90;;;;;;4935875;29;20231;-77
2021/12/03 19:57:18;;;;;;;0.90;0.67;;;4.90;99.90;;;;;;4935557;29;20209;-76
2021/12/03 19:59:45;;;;;;;1.00;0.80;;;4.90;99.90;;;;;;4935604;29;20212;-72
2021/12/03 20:02:12;;;;;;;0.83;0.77;;;5.00;99.90;;;;;;4935966;29;20235;-73
2021/12/03 20:04:39;;;;;;;3.30;1.07;;;5.00;99.90;;;;;;4935908;29;20220;-78
2021/12/03 20:07:07;;;;;;;1.63;1.10;;;5.00;99.90;;;;;;4954253;28;20214;-77
2021/12/03 20:09:40;;;;;;;1.40;1.00;;;5.10;99.90;;;;;;4951781;28;20207;-77
2021/12/03 20:12:12;;;;;;;1.67;1.13;;;5.00;99.90;;;;;;4941453;28;20224;-76
2021/12/03 20:14:41;;;;;;;1.00;0.87;;;5.00;99.90;;;;;;4944855;29;20296;-77
2021/12/03 20:17:12;;;;;;;1.93;0.80;;;5.00;99.90;;;;;;4945569;28;20284;-75
2021/12/03 20:19:40;;;;;;;1.40;0.90;;;5.00;99.90;;;;;;4938008;29;20551;-75
2021/12/03 20:22:12;;;;;;;1.57;0.90;;;5.00;99.90;;;;;;4953885;28;20725;-76
2021/12/03 20:27:29;;;;;;;1.23;1.03;;;5.00;99.90;;;;;;4937324;28;20243;-78
2021/12/03 20:29:57;;;;;;;0.90;0.70;;;5.00;99.90;;;;;;4954100;28;20209;-76
2021/12/03 20:32:35;;;;;;;1.23;0.83;;;5.00;99.90;;;;;;4953478;28;20243;-77
2021/12/03 20:35:25;;;;;;;1.27;0.87;;;5.00;99.90;;;;;;4953123;28;20215;-77
2021/12/03 20:37:55;;;;;;;1.60;1.07;;;5.00;99.90;;;;;;4954248;29;20204;-74
2021/12/03 20:40:25;;;;;;;2.03;1.00;;;5.00;99.90;;;;;;4953962;28;20228;-76
2021/12/03 20:43:05;;;;;;;1.00;0.73;;;5.10;99.90;;;;;;4953506;29;20300;-75
2021/12/03 20:48:30;;;;;;;0.90;0.73;;;5.20;99.90;;;;;;4943435;28;20598;-75
2021/12/03 20:51:31;;;;;;;1.03;0.83;;;5.20;99.90;;;;;;4954914;28;20720;-77
2021/12/03 20:54:18;;;;;;;1.53;1.07;;;5.20;99.90;;;;;;4957469;28;20216;-77
2021/12/03 20:59:41;;;;;;;2.43;1.20;;;5.30;99.90;;;;;;4957364;29;20218;-77
2021/12/03 21:10:25;;;;;;;1.10;0.77;;;5.30;99.90;;;;;;4956968;29;20247;-72
2021/12/03 21:12:54;;;;;;;1.93;0.87;;;5.20;99.90;;;;;;4956946;28;20259;-74
2021/12/03 21:15:24;;;;;;;1.00;0.80;;;5.10;99.90;;;;;;4956882;28;20294;-72
2021/12/03 21:20:43;;;;;;;2.30;0.90;;;5.20;99.90;;;;;;4956729;28;20263;-73
2021/12/03 21:23:11;;;;;;;1.30;0.80;;;5.20;99.90;;;;;;4954092;28;20222;-75
2021/12/03 21:25:39;;;;;;;1.30;0.80;;;5.20;99.90;;;;;;4952161;29;20214;-76
2021/12/03 21:28:18;;;;;;;1.10;0.73;;;5.20;99.90;;;;;;4947214;28;20247;-77
2021/12/03 21:30:50;;;;;;;1.90;0.73;;;5.20;99.90;;;;;;4951967;29;20227;-77
2021/12/03 21:41:28;;;;;;;1.23;0.80;;;5.10;99.90;;;;;;4950145;28;20268;-78
2021/12/03 21:43:56;;;;;;;1.50;0.70;;;5.20;99.90;;;;;;4976211;28;20214;-78
2021/12/03 21:46:25;;;;;;;0.77;0.70;;;5.20;99.90;;;;;;4969438;28;20207;-78
2021/12/03 21:48:53;;;;;;;1.00;0.80;;;5.20;99.90;;;;;;4956410;28;20261;-77
2021/12/03 21:51:22;;;;;;;1.37;0.70;;;5.20;99.90;;;;;;4955369;28;20223;-75
2021/12/03 21:53:50;;;;;;;1.87;1.03;;;5.20;99.90;;;;;;4955937;28;20639;-76
2021/12/03 21:56:18;;;;;;;1.30;0.90;;;5.20;99.90;;;;;;4946875;28;20323;-75
2021/12/03 21:58:46;;;;;;;1.00;0.80;;;5.20;99.90;;;;;;4950796;28;20303;-82
2021/12/03 22:01:13;;;;;;;1.30;0.70;;;5.20;99.90;;;;;;4951942;28;20247;-76
